createdAt,value
2023-02-03T00:00:10.372Z,4.20
2023-02-03T00:02:41.058Z,4.60
2023-02-03T00:05:10.469Z,4.37
2023-02-03T00:07:39.833Z,4.07
2023-02-03T00:10:10.522Z,3.80
2023-02-03T00:12:38.590Z,4.30
2023-02-03T00:15:07.756Z,3.70
2023-02-03T00:17:35.753Z,3.73
2023-02-03T00:20:04.068Z,3.60
2023-02-03T00:22:32.337Z,3.53
2023-02-03T00:25:00.690Z,4.23
2023-02-03T00:27:30.170Z,4.07
2023-02-03T00:29:59.743Z,3.90
2023-02-03T00:32:28.221Z,3.30
2023-02-03T00:34:56.670Z,3.70
2023-02-03T00:37:25.025Z,3.37
2023-02-03T00:39:55.508Z,3.40
2023-02-03T00:42:23.700Z,3.57
2023-02-03T00:44:53.117Z,3.47
2023-02-03T00:47:21.330Z,3.40
2023-02-03T00:49:50.574Z,3.73
2023-02-03T00:52:18.752Z,3.43
2023-02-03T00:54:47.007Z,3.83
2023-02-03T00:57:15.343Z,3.90
2023-02-03T00:59:44.036Z,3.30
2023-02-03T01:02:13.690Z,3.50
2023-02-03T01:04:41.968Z,3.23
2023-02-03T01:07:10.238Z,3.40
2023-02-03T01:09:39.034Z,3.60
2023-02-03T01:12:07.779Z,3.40
2023-02-03T01:14:36.006Z,2.93
2023-02-03T01:17:05.972Z,3.57
2023-02-03T01:19:35.507Z,3.40
2023-02-03T01:22:03.752Z,3.17
2023-02-03T01:24:32.235Z,3.10
2023-02-03T01:27:00.985Z,3.30
2023-02-03T01:29:29.534Z,3.53
2023-02-03T01:31:57.998Z,3.20
2023-02-03T01:34:26.325Z,3.20
2023-02-03T01:36:56.001Z,3.13
2023-02-03T01:39:26.285Z,3.50
2023-02-03T01:41:56.564Z,2.70
2023-02-03T01:44:40.794Z,3.07
2023-02-03T01:47:23.169Z,3.00
2023-02-03T01:49:57.907Z,2.63
2023-02-03T01:52:29.096Z,3.10
2023-02-03T01:54:59.414Z,3.07
2023-02-03T01:57:31.914Z,3.23
2023-02-03T02:00:01.575Z,3.50
2023-02-03T02:02:30.468Z,2.77
2023-02-03T02:05:06.143Z,2.70
2023-02-03T02:07:38.526Z,3.30
2023-02-03T02:10:07.847Z,2.93
2023-02-03T02:12:35.980Z,3.37
2023-02-03T02:15:04.595Z,2.77
2023-02-03T02:17:57.614Z,3.60
2023-02-03T02:20:50.045Z,3.33
2023-02-03T02:23:47.922Z,3.03
2023-02-03T02:26:40.589Z,3.10
2023-02-03T02:29:33.479Z,3.00
2023-02-03T02:32:08.133Z,3.10
2023-02-03T02:34:47.567Z,2.60
2023-02-03T02:37:25.903Z,3.10
2023-02-03T02:40:01.891Z,2.73
2023-02-03T02:42:36.194Z,2.93
2023-02-03T02:45:11.579Z,2.80
2023-02-03T02:47:41.344Z,2.70
2023-02-03T02:50:15.602Z,2.80
2023-02-03T02:52:47.076Z,2.60
2023-02-03T02:55:24.638Z,2.70
2023-02-03T02:57:57.482Z,3.20
2023-02-03T03:00:31.695Z,2.70
2023-02-03T03:03:13.199Z,3.40
2023-02-03T03:05:44.930Z,2.40
2023-02-03T03:08:17.670Z,2.50
2023-02-03T03:10:47.229Z,2.93
2023-02-03T03:13:23.260Z,3.10
2023-02-03T03:15:55.249Z,2.70
2023-02-03T03:18:29.597Z,2.80
2023-02-03T03:21:05.997Z,2.80
2023-02-03T03:23:39.466Z,3.00
2023-02-03T03:26:14.199Z,3.50
2023-02-03T03:28:48.008Z,2.97
2023-02-03T03:31:18.301Z,2.70
2023-02-03T03:33:49.204Z,3.00
2023-02-03T03:36:25.167Z,2.60
2023-02-03T03:38:59.835Z,3.03
2023-02-03T03:41:37.502Z,3.10
2023-02-03T03:44:08.998Z,2.80
2023-02-03T03:46:41.349Z,2.97
2023-02-03T03:49:12.823Z,2.70
2023-02-03T03:51:45.609Z,2.43
2023-02-03T03:54:17.986Z,3.03
2023-02-03T03:56:51.555Z,3.17
2023-02-03T03:59:23.123Z,2.67
2023-02-03T04:01:53.344Z,3.47
2023-02-03T04:04:26.135Z,3.13
2023-02-03T04:06:55.723Z,3.10
2023-02-03T04:09:23.884Z,2.90
2023-02-03T04:12:05.773Z,3.00
2023-02-03T04:14:38.118Z,2.40
2023-02-03T04:17:06.658Z,3.03
2023-02-03T04:19:36.222Z,2.87
2023-02-03T04:22:04.434Z,2.90
2023-02-03T04:24:32.628Z,2.50
2023-02-03T04:27:00.768Z,2.60
2023-02-03T04:29:28.961Z,2.60
2023-02-03T04:31:57.296Z,2.63
2023-02-03T04:34:25.513Z,2.40
2023-02-03T04:36:54.999Z,2.90
2023-02-03T04:39:23.602Z,2.47
2023-02-03T04:41:51.623Z,2.40
2023-02-03T04:44:19.949Z,2.90
2023-02-03T04:46:48.039Z,2.70
2023-02-03T04:49:17.780Z,2.60
2023-02-03T04:51:46.045Z,2.60
2023-02-03T04:54:15.460Z,2.57
2023-02-03T04:56:43.739Z,2.20
2023-02-03T04:59:11.932Z,2.57
2023-02-03T05:01:40.116Z,3.20
2023-02-03T05:04:08.397Z,2.37
2023-02-03T05:06:36.536Z,2.77
2023-02-03T05:09:05.251Z,2.60
2023-02-03T05:11:36.091Z,2.93
2023-02-03T05:14:04.672Z,2.40
2023-02-03T05:16:33.015Z,2.47
2023-02-03T05:19:01.404Z,2.50
2023-02-03T05:21:29.817Z,2.97
2023-02-03T05:23:57.962Z,3.10
2023-02-03T05:26:26.141Z,2.67
2023-02-03T05:28:57.675Z,3.07
2023-02-03T05:31:25.959Z,3.00
2023-02-03T05:33:54.029Z,2.60
2023-02-03T05:36:22.343Z,2.70
2023-02-03T05:38:50.741Z,3.17
2023-02-03T05:41:36.281Z,3.00
2023-02-03T05:44:06.116Z,2.80
2023-02-03T05:46:34.397Z,3.27
2023-02-03T05:49:02.587Z,2.73
2023-02-03T05:51:31.064Z,2.60
2023-02-03T05:53:59.262Z,2.60
2023-02-03T05:56:27.530Z,2.67
2023-02-03T05:58:55.583Z,2.57
2023-02-03T06:01:25.406Z,2.40
2023-02-03T06:03:53.652Z,2.60
2023-02-03T06:06:21.953Z,2.80
2023-02-03T06:08:51.206Z,2.40
2023-02-03T06:11:19.529Z,2.63
2023-02-03T06:13:49.115Z,2.73
2023-02-03T06:16:17.450Z,2.50
2023-02-03T06:18:47.322Z,2.53
2023-02-03T06:21:15.440Z,3.10
2023-02-03T06:23:43.583Z,2.43
2023-02-03T06:26:12.211Z,2.73
2023-02-03T06:28:40.262Z,2.70
2023-02-03T06:31:08.769Z,2.40
2023-02-03T06:33:37.171Z,2.40
2023-02-03T06:36:07.615Z,2.20
2023-02-03T06:38:35.721Z,2.60
2023-02-03T06:41:03.939Z,1.93
2023-02-03T06:43:32.237Z,2.57
2023-02-03T06:46:00.586Z,2.30
2023-02-03T06:48:28.794Z,2.63
2023-02-03T06:50:57.019Z,2.40
2023-02-03T06:53:26.780Z,2.50
2023-02-03T06:55:54.894Z,2.83
2023-02-03T06:58:23.022Z,2.20
2023-02-03T07:00:52.041Z,2.43
2023-02-03T07:03:20.231Z,2.77
2023-02-03T07:05:48.509Z,2.37
2023-02-03T07:08:16.734Z,2.87
2023-02-03T07:10:46.259Z,2.60
2023-02-03T07:13:14.789Z,2.60
2023-02-03T07:15:43.081Z,2.57
2023-02-03T07:18:13.100Z,2.80
2023-02-03T07:20:43.414Z,2.60
2023-02-03T07:23:11.525Z,2.80
2023-02-03T07:25:40.325Z,2.20
2023-02-03T07:28:10.004Z,2.97
2023-02-03T07:30:38.437Z,2.60
2023-02-03T07:33:08.146Z,2.30
2023-02-03T07:35:36.586Z,2.30
2023-02-03T07:38:04.742Z,2.60
2023-02-03T07:40:33.270Z,2.40
2023-02-03T07:43:01.514Z,2.33
2023-02-03T07:45:31.102Z,2.43
2023-02-03T07:47:59.259Z,2.40
2023-02-03T07:50:27.733Z,2.23
2023-02-03T07:52:56.689Z,2.20
2023-02-03T07:55:24.828Z,1.83
2023-02-03T07:57:55.594Z,2.20
2023-02-03T08:00:24.467Z,2.20
2023-02-03T08:02:54.122Z,2.57
2023-02-03T08:05:22.506Z,2.13
2023-02-03T08:07:50.563Z,2.17
2023-02-03T08:10:19.482Z,2.33
2023-02-03T08:12:48.094Z,1.60
2023-02-03T08:15:17.435Z,2.27
2023-02-03T08:17:46.391Z,2.20
2023-02-03T08:20:16.576Z,2.03
2023-02-03T08:22:44.714Z,2.17
2023-02-03T08:25:13.347Z,2.00
2023-02-03T08:27:42.338Z,2.40
2023-02-03T08:30:14.069Z,1.77
2023-02-03T08:32:42.292Z,2.10
2023-02-03T08:35:10.687Z,2.30
2023-02-03T08:37:40.158Z,2.03
2023-02-03T08:40:09.500Z,1.93
2023-02-03T08:42:37.699Z,2.00
2023-02-03T08:45:07.376Z,2.47
2023-02-03T08:47:36.914Z,2.40
2023-02-03T08:50:05.840Z,2.07
2023-02-03T08:52:34.250Z,2.40
2023-02-03T08:55:03.802Z,2.20
2023-02-03T08:57:34.201Z,2.00
2023-02-03T09:00:03.339Z,2.00
2023-02-03T09:02:32.212Z,2.30
2023-02-03T09:05:00.564Z,2.20
2023-02-03T09:07:29.148Z,2.03
2023-02-03T09:09:57.239Z,2.27
2023-02-03T09:12:26.699Z,2.27
2023-02-03T09:14:55.289Z,2.40
2023-02-03T09:17:23.313Z,2.20
2023-02-03T09:19:51.531Z,2.03
2023-02-03T09:22:19.765Z,2.00
2023-02-03T09:24:50.613Z,2.07
2023-02-03T09:27:18.703Z,1.90
2023-02-03T09:29:48.338Z,2.37
2023-02-03T09:32:16.636Z,2.40
2023-02-03T09:34:44.891Z,2.10
2023-02-03T09:37:13.099Z,2.40
2023-02-03T09:39:41.364Z,2.40
2023-02-03T09:42:39.073Z,2.50
2023-02-03T09:45:19.247Z,2.10
2023-02-03T09:47:53.997Z,2.40
2023-02-03T09:50:24.948Z,1.90
2023-02-03T09:52:54.073Z,1.70
2023-02-03T09:55:31.403Z,1.70
2023-02-03T09:58:06.385Z,2.60
2023-02-03T10:00:41.049Z,2.20
2023-02-03T10:03:15.759Z,2.17
2023-02-03T10:06:13.995Z,1.70
2023-02-03T10:09:08.145Z,1.80
2023-02-03T10:11:55.543Z,2.20
2023-02-03T10:14:37.061Z,2.27
2023-02-03T10:17:16.385Z,1.77
2023-02-03T10:19:48.532Z,2.40
2023-02-03T10:22:20.695Z,2.40
2023-02-03T10:24:55.971Z,2.40
2023-02-03T10:27:26.114Z,2.00
2023-02-03T10:30:00.412Z,2.37
2023-02-03T10:32:30.459Z,2.13
2023-02-03T10:34:58.798Z,2.40
2023-02-03T10:37:31.377Z,2.20
2023-02-03T10:40:02.549Z,2.50
2023-02-03T10:42:52.361Z,2.10
2023-02-03T10:45:21.780Z,2.40
2023-02-03T10:47:55.122Z,2.20
2023-02-03T10:50:24.735Z,2.30
2023-02-03T10:52:52.899Z,2.30
2023-02-03T10:55:32.072Z,2.40
2023-02-03T10:58:10.145Z,2.40
2023-02-03T11:00:38.463Z,2.20
2023-02-03T11:03:17.839Z,2.33
2023-02-03T11:05:45.994Z,2.30
2023-02-03T11:08:16.763Z,2.50
2023-02-03T11:10:45.506Z,1.83
2023-02-03T11:13:18.370Z,2.50
2023-02-03T11:15:54.072Z,2.67
2023-02-03T11:18:43.150Z,1.90
2023-02-03T11:21:17.235Z,2.43
2023-02-03T11:23:53.648Z,2.60
2023-02-03T11:26:25.858Z,2.40
2023-02-03T11:28:57.951Z,2.40
2023-02-03T11:31:28.116Z,2.30
2023-02-03T11:34:00.918Z,2.30
2023-02-03T11:36:34.239Z,2.33
2023-02-03T11:39:35.828Z,1.87
2023-02-03T11:42:04.235Z,2.00
2023-02-03T11:44:33.584Z,2.60
2023-02-03T11:47:05.396Z,2.30
2023-02-03T11:50:02.155Z,2.30
2023-02-03T11:52:46.154Z,2.20
2023-02-03T11:55:32.867Z,2.20
2023-02-03T11:58:23.421Z,2.10
2023-02-03T12:00:58.181Z,2.00
2023-02-03T12:03:50.416Z,2.50
2023-02-03T12:06:31.691Z,2.33
2023-02-03T12:09:10.245Z,1.80
2023-02-03T12:11:56.061Z,1.83
2023-02-03T12:14:40.512Z,2.47
2023-02-03T12:17:31.634Z,1.80
2023-02-03T12:20:26.629Z,1.80
2023-02-03T12:23:09.137Z,1.70
2023-02-03T12:25:47.828Z,2.00
2023-02-03T12:28:33.711Z,1.90
2023-02-03T12:31:10.154Z,2.33
2023-02-03T12:33:44.356Z,1.87
2023-02-03T12:36:16.675Z,1.90
2023-02-03T12:38:52.669Z,1.80
2023-02-03T12:41:27.889Z,1.87
2023-02-03T12:44:01.436Z,1.80
2023-02-03T12:46:33.467Z,1.80
2023-02-03T12:49:06.471Z,2.20
2023-02-03T12:51:40.367Z,1.80
2023-02-03T12:54:21.471Z,1.77
2023-02-03T12:56:55.211Z,1.80
2023-02-03T12:59:26.517Z,1.70
2023-02-03T13:02:00.022Z,1.83
2023-02-03T13:04:35.051Z,1.80
2023-02-03T13:07:09.608Z,1.70
2023-02-03T13:09:44.588Z,1.67
2023-02-03T13:12:21.208Z,1.93
2023-02-03T13:14:54.101Z,1.47
2023-02-03T13:17:26.809Z,2.03
2023-02-03T13:19:59.404Z,1.80
2023-02-03T13:22:28.107Z,1.70
2023-02-03T13:25:03.151Z,1.80
2023-02-03T13:27:44.120Z,2.00
2023-02-03T13:30:41.107Z,2.10
2023-02-03T13:33:36.307Z,2.13
2023-02-03T13:36:18.676Z,2.33
2023-02-03T13:39:16.762Z,1.83
2023-02-03T13:41:50.089Z,1.97
2023-02-03T13:44:21.946Z,2.10
2023-02-03T13:46:52.794Z,2.00
2023-02-03T13:49:26.737Z,2.00
2023-02-03T13:51:55.522Z,2.03
2023-02-03T13:54:28.828Z,2.07
2023-02-03T13:57:02.215Z,1.90
2023-02-03T13:59:40.783Z,2.10
2023-02-03T14:02:45.685Z,2.00
2023-02-03T14:05:42.988Z,2.00
2023-02-03T14:08:48.541Z,1.90
2023-02-03T14:11:41.498Z,1.93
2023-02-03T14:14:46.119Z,1.93
2023-02-03T14:18:03.152Z,2.03
2023-02-03T14:20:53.121Z,2.70
2023-02-03T14:23:26.784Z,1.93
2023-02-03T14:25:58.255Z,1.80
2023-02-03T14:28:32.376Z,2.03
2023-02-03T14:31:16.900Z,2.00
2023-02-03T14:34:13.410Z,1.90
2023-02-03T14:36:48.892Z,2.10
2023-02-03T14:39:56.237Z,1.77
2023-02-03T14:42:49.400Z,2.00
2023-02-03T14:45:39.676Z,2.00
2023-02-03T14:48:29.074Z,1.90
2023-02-03T14:51:11.418Z,2.00
2023-02-03T14:53:58.212Z,2.60
2023-02-03T14:56:59.497Z,2.50
2023-02-03T14:59:33.041Z,2.30
2023-02-03T15:02:19.184Z,2.10
2023-02-03T15:04:50.736Z,2.47
2023-02-03T15:07:38.907Z,2.60
2023-02-03T15:10:16.276Z,2.03
2023-02-03T15:12:49.501Z,1.97
2023-02-03T15:15:23.039Z,2.30
2023-02-03T15:17:52.175Z,2.80
2023-02-03T15:20:38.655Z,2.70
2023-02-03T15:23:20.125Z,2.43
2023-02-03T15:25:54.860Z,1.90
2023-02-03T15:28:24.137Z,2.30
2023-02-03T15:30:57.872Z,2.10
2023-02-03T15:33:26.390Z,2.50
2023-02-03T15:36:00.659Z,2.50
2023-02-03T15:38:34.926Z,2.30
2023-02-03T15:41:04.548Z,2.47
2023-02-03T15:43:38.313Z,2.40
2023-02-03T15:46:13.119Z,2.00
2023-02-03T15:48:46.424Z,2.07
2023-02-03T15:51:18.675Z,2.20
2023-02-03T15:53:54.432Z,2.30
2023-02-03T15:56:30.447Z,2.40
2023-02-03T15:58:59.693Z,2.50
2023-02-03T16:01:28.602Z,2.53
2023-02-03T16:03:58.285Z,2.10
2023-02-03T16:06:30.699Z,2.50
2023-02-03T16:08:59.671Z,2.17
2023-02-03T16:11:32.017Z,1.80
2023-02-03T16:14:02.227Z,2.30
2023-02-03T16:16:36.995Z,2.30
2023-02-03T16:19:07.475Z,2.20
2023-02-03T16:21:44.268Z,2.50
2023-02-03T16:24:40.997Z,2.50
2023-02-03T16:27:22.162Z,2.13
2023-02-03T16:30:07.704Z,2.20
2023-02-03T16:32:53.398Z,2.17
2023-02-03T16:35:39.222Z,2.37
2023-02-03T16:38:32.031Z,2.30
2023-02-03T16:41:17.483Z,2.30
2023-02-03T16:44:03.618Z,1.53
2023-02-03T16:46:49.420Z,2.10
2023-02-03T16:49:34.909Z,2.80
2023-02-03T16:52:06.392Z,1.97
2023-02-03T16:54:35.889Z,2.27
2023-02-03T16:57:03.942Z,2.57
2023-02-03T16:59:32.212Z,2.50
2023-02-03T17:02:00.405Z,2.53
2023-02-03T17:04:28.449Z,2.77
2023-02-03T17:06:56.816Z,2.50
2023-02-03T17:09:25.158Z,2.57
2023-02-03T17:11:54.837Z,2.30
2023-02-03T17:14:23.009Z,2.50
2023-02-03T17:16:51.218Z,2.70
2023-02-03T17:19:19.270Z,2.40
2023-02-03T17:21:47.761Z,2.60
2023-02-03T17:24:16.390Z,2.80
2023-02-03T17:26:44.729Z,2.30
2023-02-03T17:29:14.365Z,2.60
2023-02-03T17:31:42.468Z,2.27
2023-02-03T17:34:10.937Z,2.47
2023-02-03T17:36:38.997Z,2.03
2023-02-03T17:55:31.964Z,2.47
2023-02-03T17:58:00.311Z,2.27
2023-02-03T18:00:33.064Z,2.20
2023-02-03T18:03:01.297Z,2.10
2023-02-03T18:05:29.893Z,2.10
2023-02-03T18:08:00.934Z,7.03
2023-02-03T18:10:34.390Z,2.40
2023-02-03T18:13:02.845Z,2.50
2023-02-03T18:15:33.063Z,2.40
2023-02-03T18:18:01.943Z,2.23
2023-02-03T18:20:30.500Z,2.50
2023-02-03T18:22:58.776Z,2.50
2023-02-03T18:25:26.857Z,2.40
2023-02-03T18:27:55.220Z,2.30
2023-02-03T18:30:23.614Z,2.30
2023-02-03T18:32:53.717Z,1.97
2023-02-03T18:35:21.924Z,2.30
2023-02-03T18:37:51.646Z,2.20
2023-02-03T18:40:20.306Z,2.53
2023-02-03T18:42:48.597Z,1.80
2023-02-03T18:45:16.923Z,2.60
2023-02-03T18:47:44.969Z,2.30
2023-02-03T18:50:14.873Z,2.67
2023-02-03T18:52:43.011Z,2.60
2023-02-03T18:55:11.186Z,2.50
2023-02-03T18:57:39.679Z,2.23
2023-02-03T19:00:09.139Z,2.23
2023-02-03T19:02:37.297Z,2.80
2023-02-03T19:05:05.729Z,2.17
2023-02-03T19:07:35.152Z,2.33
2023-02-03T19:10:03.285Z,2.13
2023-02-03T19:12:31.603Z,2.30
2023-02-03T19:14:59.835Z,2.27
2023-02-03T19:17:28.061Z,2.07
2023-02-03T19:19:56.176Z,2.77
2023-02-03T19:22:25.887Z,2.33
2023-02-03T19:24:55.890Z,2.40
2023-02-03T19:27:24.326Z,2.53
2023-02-03T19:29:52.651Z,2.27
2023-02-03T19:32:20.952Z,2.50
2023-02-03T19:34:49.097Z,2.60
2023-02-03T19:37:17.178Z,2.47
2023-02-03T19:39:47.900Z,2.30
2023-02-03T19:42:17.450Z,2.17
2023-02-03T19:44:45.668Z,2.40
2023-02-03T19:47:14.040Z,2.10
2023-02-03T19:49:42.169Z,2.30
2023-02-03T19:52:10.327Z,2.43
2023-02-03T19:54:38.670Z,2.23
2023-02-03T19:57:06.908Z,2.57
2023-02-03T19:59:36.560Z,2.47
2023-02-03T20:02:13.658Z,2.50
2023-02-03T20:04:43.908Z,2.60
2023-02-03T20:07:12.563Z,2.43
2023-02-03T20:09:40.696Z,2.13
2023-02-03T20:12:08.962Z,2.50
2023-02-03T20:14:38.736Z,2.20
2023-02-03T20:17:07.614Z,2.30
2023-02-03T20:19:36.084Z,2.27
2023-02-03T20:22:04.241Z,2.30
2023-02-03T20:24:32.580Z,2.20
2023-02-03T20:27:00.907Z,2.33
2023-02-03T20:29:29.182Z,2.10
2023-02-03T20:31:58.656Z,2.23
2023-02-03T20:34:28.514Z,2.57
2023-02-03T20:36:58.572Z,2.40
2023-02-03T20:39:27.616Z,2.40
2023-02-03T20:41:56.153Z,2.33
2023-02-03T20:44:24.267Z,2.00
2023-02-03T20:46:53.405Z,2.70
2023-02-03T20:49:23.184Z,2.03
2023-02-03T20:51:51.608Z,2.53
2023-02-03T20:54:22.255Z,2.47
2023-02-03T20:56:50.568Z,2.30
2023-02-03T20:59:20.143Z,2.40
2023-02-03T21:01:49.221Z,2.20
2023-02-03T21:04:36.955Z,2.40
2023-02-03T21:07:14.824Z,2.67
2023-02-03T21:09:43.155Z,2.30
2023-02-03T21:12:13.022Z,2.83
2023-02-03T21:14:43.895Z,2.30
2023-02-03T21:17:18.211Z,2.20
2023-02-03T21:19:47.983Z,2.63
2023-02-03T21:22:23.010Z,2.53
2023-02-03T21:24:53.838Z,2.60
2023-02-03T21:27:26.918Z,3.17
2023-02-03T21:29:57.404Z,2.80
2023-02-03T21:32:27.720Z,3.27
2023-02-03T21:34:56.096Z,2.90
2023-02-03T21:37:42.588Z,2.80
2023-02-03T21:40:22.615Z,3.53
2023-02-03T21:42:51.832Z,3.27
2023-02-03T21:45:30.965Z,2.67
2023-02-03T21:47:59.826Z,3.00
2023-02-03T21:50:35.703Z,2.67
2023-02-03T21:53:25.645Z,3.10
2023-02-03T21:55:54.464Z,2.73
2023-02-03T21:58:24.505Z,2.70
2023-02-03T22:00:54.011Z,2.77
2023-02-03T22:03:30.815Z,2.53
2023-02-03T22:06:17.641Z,2.50
2023-02-03T22:08:48.659Z,2.43
2023-02-03T22:11:18.592Z,2.50
2023-02-03T22:13:47.366Z,2.53
2023-02-03T22:16:17.189Z,2.73
2023-02-03T22:18:46.350Z,2.83
2023-02-03T22:21:15.357Z,2.37
2023-02-03T22:23:43.981Z,2.50
2023-02-03T22:26:14.537Z,2.47
2023-02-03T22:28:43.184Z,2.60
2023-02-03T22:31:13.158Z,2.50
2023-02-03T22:33:43.374Z,2.40
2023-02-03T22:36:12.551Z,2.60
2023-02-03T22:38:42.217Z,2.43
2023-02-03T22:41:11.916Z,3.00
2023-02-03T22:43:41.789Z,2.80
2023-02-03T22:46:10.184Z,2.40
2023-02-03T22:48:38.318Z,2.50
2023-02-03T22:51:06.606Z,2.43
2023-02-03T22:53:34.913Z,2.63
2023-02-03T22:56:03.328Z,2.73
2023-02-03T22:58:32.228Z,2.90
2023-02-03T23:01:01.672Z,3.10
2023-02-03T23:03:32.683Z,2.90
2023-02-03T23:06:01.168Z,2.80
2023-02-03T23:08:29.246Z,3.30
2023-02-03T23:10:57.382Z,2.80
2023-02-03T23:13:25.933Z,3.20
2023-02-03T23:15:54.015Z,3.43
2023-02-03T23:18:23.827Z,3.20
2023-02-03T23:20:51.993Z,2.93
2023-02-03T23:23:20.212Z,2.80
2023-02-03T23:25:48.331Z,3.23
2023-02-03T23:28:16.537Z,2.87
2023-02-03T23:30:45.251Z,3.30
2023-02-03T23:33:13.553Z,3.00
2023-02-03T23:35:49.403Z,3.40
2023-02-03T23:38:18.851Z,3.40
2023-02-03T23:40:47.926Z,3.40
2023-02-03T23:43:16.890Z,3.30
2023-02-03T23:45:44.990Z,3.17
2023-02-03T23:48:13.623Z,3.10
2023-02-03T23:50:43.076Z,2.97
2023-02-03T23:53:11.521Z,2.90
2023-02-03T23:55:39.530Z,3.60
2023-02-03T23:58:07.691Z,3.33
